Lordstown, Ohio
Current Conditions -  °F | °C
As of 12:51 AM on Monday 26 Jan 2015 (Local Time) from KYNG Reporting Station
Light Snow Light Snow  
Wind Chill:   Ceiling: 2400
Heat Index: 19°   Visibility: 1.5mi
Dew Point: 16°   Wind: 13mph
Humidity: 88%   Direction: 30°NNE
Pressure: 29.81"   Gusts: NA
Location:  41.176°N, 80.8696°W
Report Text: KYNG 260551Z 03011KT 1 1/2SM -SN BR OVC024 M07/M09 A2981 RMK AO2 SLP110 60005 4/005 T10721089 11044 21072 58010
Loading
Personal Weather Stations






























Interactive Weather Map New forecast layout! Learn more

10-Day Weather Forecast

Advertisements
Track Severe Weather on mobile